WetterOnline ( https://www.wetteronline.de )

Wetter aktuell Arkona

Aktuelles Wetter: Kap Arkona/Rügen (42m)

6-stündlich | Neueste Meldungen
Ortszeit Temperatur Wetter
Mo, 21.10. 20:00 13.1° C bedeckt
Mo, 21.10. 14:00 13.0° C leichter Regen
Mo, 21.10. 8:00 11.6° C wolkig
Mo, 21.10. 2:00 11.1° C leichter Regen
So, 20.10. 20:00 12.2° C Regen
So, 20.10. 14:00 12.8° C bedeckt
So, 20.10. 8:00 11.2° C wolkig
So, 20.10. 2:00 12.4° C bedeckt
Ortszeit Temperatur Wetter
Di, 22.10. 1:30 10.9° C Nebel
Di, 22.10. 1:20 10.9° C Nebel
Di, 22.10. 1:10 11.2° C Nebel
Di, 22.10. 1:00 11.5° C Nebel
Di, 22.10. 0:50 11.5° C Nebel
Di, 22.10. 0:40 11.2° C Nebel
Di, 22.10. 0:30 11.4° C wolkenlos
Di, 22.10. 0:00 11.9° C fast wolkenlos
Mo, 21.10. 23:30 12.2° C wolkig
Mo, 21.10. 23:00 13.0° C bewölkt
Mo, 21.10. 22:30 13.2° C bewölkt
Ortszeit Relative Feuchte Sichtweite
Mo, 21.10. 20:00 98% -
Mo, 21.10. 14:00 91% 35 km
Mo, 21.10. 8:00 92% 40 km
Mo, 21.10. 2:00 94% 30 km
So, 20.10. 20:00 99% 3.2 km
So, 20.10. 14:00 93% 28 km
So, 20.10. 8:00 96% 29 km
So, 20.10. 2:00 90% 45 km
Ortszeit Relative Feuchte Sichtweite
Di, 22.10. 1:30 100% 0.2 km
Di, 22.10. 1:20 100% -
Di, 22.10. 1:10 100% -
Di, 22.10. 1:00 100% 0.7 km
Di, 22.10. 0:50 100% -
Di, 22.10. 0:40 100% -
Di, 22.10. 0:30 99% 1.4 km
Di, 22.10. 0:00 98% 2.4 km
Mo, 21.10. 23:30 98% 2.4 km
Mo, 21.10. 23:00 97% 3.6 km
Mo, 21.10. 22:30 96% 5.0 km
Ortszeit Niederschlagsmenge Niederschlagsart
Mo, 21.10. 20:00 0.1 l/m2 in 12 Std. Regen
Mo, 21.10. 14:00 0.1 l/m2 in 6 Std. Regen
Mo, 21.10. 8:00 4 l/m2 in 12 Std. Regen
Mo, 21.10. 2:00 2 l/m2 in 6 Std. Regen
So, 20.10. 20:00 0.1 l/m2 in 12 Std. Regen
So, 20.10. 14:00 0.1 l/m2 in 6 Std. Regen
So, 20.10. 8:00 0.1 l/m2 in 12 Std. Regen
So, 20.10. 2:00 0.1 l/m2 in 6 Std. Regen
Ortszeit Niederschlagsmenge Niederschlagsart
Di, 22.10. 1:30 0.0 l/m2 in 1 Std. -
Di, 22.10. 1:20 keine Meldung -
Di, 22.10. 1:10 keine Meldung -
Di, 22.10. 1:00 0.0 l/m2 in 1 Std. -
Di, 22.10. 0:50 keine Meldung -
Di, 22.10. 0:40 keine Meldung -
Di, 22.10. 0:30 0.0 l/m2 in 1 Std. -
Di, 22.10. 0:00 0.0 l/m2 in 1 Std. -
Mo, 21.10. 23:30 0.0 l/m2 in 1 Std. -
Mo, 21.10. 23:00 0.0 l/m2 in 1 Std. -
Mo, 21.10. 22:30 0.0 l/m2 in 1 Std. -
Ortszeit Stärke Spitze Richtung
km/h Bft. km/h Grad Sektor
Mo, 21.10. 20:00 13 3 41 240° SW
Mo, 21.10. 14:00 24 4 46 80° O
Mo, 21.10. 8:00 29 5 47 70° O
Mo, 21.10. 2:00 22 4 32 40° NO
So, 20.10. 20:00 7 2 14 70° O
So, 20.10. 14:00 9 2 20 180° S
So, 20.10. 8:00 14 3 29 210° SW
So, 20.10. 2:00 24 4 46 200° S
Ortszeit Stärke Spitze Richtung
km/h Bft. km/h Grad Sektor
Di, 22.10. 1:30 15 3 19 240° SW
Di, 22.10. 1:20 15 3 - 240° SW
Di, 22.10. 1:10 14 3 - 240° SW
Di, 22.10. 1:00 17 3 26 240° SW
Di, 22.10. 0:50 17 3 - 240° SW
Di, 22.10. 0:40 18 3 - 250° W
Di, 22.10. 0:30 18 3 22 250° W
Di, 22.10. 0:00 22 4 25 250° W
Mo, 21.10. 23:30 20 4 26 250° W
Mo, 21.10. 23:00 14 3 25 240° SW
Mo, 21.10. 22:30 17 3 22 240° SW
Ortszeit Untergrenze Bedeckung Gattung
total tief tief mittel hoch
Mo, 21.10. 20:00 240 m 8/8 8/8 - - -
Mo, 21.10. 14:00 2100 m 8/8 6/8 - - -
Mo, 21.10. 8:00 1500 m 8/8 1/8 - - -
Mo, 21.10. 2:00 30 m 8/8 8/8 - - -
So, 20.10. 20:00 <30 m 8/8 0/8 - - -
So, 20.10. 14:00 1800 m 8/8 8/8 - - -
So, 20.10. 8:00 1500 m 8/8 3/8 - - -
So, 20.10. 2:00 1200 m 8/8 8/8 - - -
Ortszeit Bedeckungsgrad in Achtel und Wolkenuntergrenze
Di, 22.10. 1:30 7(30m) 7(9000m)
Di, 22.10. 1:20 7(30m) 7(9000m)
Di, 22.10. 1:10 5(30m) 7(9000m)
Di, 22.10. 1:00 1(30m) 3(9000m)
Di, 22.10. 0:50 1(30m) 3(9000m)
Di, 22.10. 0:40 1(<30m) 2(9000m)
Di, 22.10. 0:30 keine Wolken
Di, 22.10. 0:00 1(360m)
Mo, 21.10. 23:30 2(390m) 6(4500m)
Mo, 21.10. 23:00 7(450m) 7(4500m)
Mo, 21.10. 22:30 7(480m) 7(4500m)
Ortszeit Luftdruck NN (hPa) Tendenz (hPa in 3 Std.)
Mo, 21.10. 20:00 1019 + 2,0
Mo, 21.10. 14:00 1018 - 0,1
Mo, 21.10. 8:00 1017 + 1,0
Mo, 21.10. 2:00 1015 + 0,2
So, 20.10. 20:00 1014 + 1,3
So, 20.10. 14:00 1012 + 0,4
So, 20.10. 8:00 1009 + 0,7
So, 20.10. 2:00 1008 + 0,4
Ortszeit Luftdruck NN (hPa) Tendenz (hPa in 3 Std.)
Di, 22.10. 1:30 1020 + 0,5
Di, 22.10. 1:20 1020 keine Meldung
Di, 22.10. 1:10 1020 keine Meldung
Di, 22.10. 1:00 1020 + 0,7
Di, 22.10. 0:50 1020 keine Meldung
Di, 22.10. 0:40 1020 keine Meldung
Di, 22.10. 0:30 1020 + 0,1
Di, 22.10. 0:00 1020 + 0,1
Mo, 21.10. 23:30 1020 + 0,1
Mo, 21.10. 23:00 1020 + 0,4
Mo, 21.10. 22:30 1020 + 1,0
Ortszeit Schneehöhe (cm)
Mo, 21.10. 20:00 0
Mo, 21.10. 14:00 0
Mo, 21.10. 8:00 0
Mo, 21.10. 2:00 0
So, 20.10. 20:00 0
So, 20.10. 14:00 0
So, 20.10. 8:00 0
So, 20.10. 2:00 0
Ortszeit Schneehöhe (cm)
Di, 22.10. 1:30 0
Di, 22.10. 1:20 0
Di, 22.10. 1:10 0
Di, 22.10. 1:00 0
Di, 22.10. 0:50 0
Di, 22.10. 0:40 0
Di, 22.10. 0:30 0
Di, 22.10. 0:00 0
Mo, 21.10. 23:30 0
Mo, 21.10. 23:00 0
Mo, 21.10. 22:30 0
Link zu dieser Seite / Seite empfehlen

Das Wetter in ...